Rabat-Sale, Morocco

2:48 PM WEST on May 04, 2015 (GMT +0100)
Colegio Espanol de Rabat | | Change Station
CLOSE
Current Station
Personal Weather Station
Location: Rabat, RABAT-SAL�-ZEMUR-ZAER
Elevation: 167 ft
Nearby Weather Stations

Elev 167 ft 34.01 °N, 6.82 °W | Updated 3 minutes ago

Clear
Clear
70.5 °F
Feels Like 73 °F
N
4.0
Wind Variable Wind from West
Gusts 6.0 mph

Today
High -- | Low -- °F
--% Chance of Precip.
Yesterday
High -- | Low -- °F
Precip. -- in
6:35 AM 8:12 PM
Full, 100% visible
Pressure 29.92 in
Visibility 5.0 miles
Clouds
Heat Index 73 °F
Dew Point 61 °F
Humidity 73%
Rainfall in
Snow Depth Not available.
UV 3.0 out of 12
Pollen Not available.
Air Quality Not available.
Flu Activity Not available.
METAR GMME 041330Z 28012KT 8000 NSC 24/10 Q1013 NOSIG

More Conditions Fewer Conditions

Pressure 29.92 in
Visibility 5.0 miles
Clouds
Heat Index 73 °F
Dew Point 61 °F
Humidity 73%
Rainfall in
Snow Depth Not available.
UV 3.0 out of 12
Pollen Not available.
Air Quality Not available.
Flu Activity Not available.
METAR GMME 041330Z 28012KT 8000 NSC 24/10 Q1013 NOSIG

More Conditions Fewer Conditions

10-Day Weather Forecast

Almanac

Astronomy

May. 04, 2015 Rise Set
Actual Time
Civil Twilight
Nautical Twilight
Astronomical Twilight
Moon
Length of Visible Light
Length of Day
Tomorrow will be .
, % of the Moon is Illuminated

Today's Extremes

Country Highs Country Lows

Community

WunderPhotos

Upload Photos

1,818,611 photos uploaded!

WunderBlogs® & News

Nearby

Air Quality

  Air Quality AQ Index Pollutant
Not available.

Snow Depth

Station Depth Elevation

Earthquake Activity

City Distance Mag. Time & Date
Minimum magnitude displayed is 2.5.

Coastal Water Temperatures

Place Temperature

Stations

Nearby Weather Stations

Station Location Temp. Windchill Dew Point Humidity Wind Precip. Elev Updated Type